createdAt,value
2019-01-14T00:00:07.697Z,99245.84
2019-01-14T00:02:35.440Z,99248.66
2019-01-14T00:05:03.546Z,99256.08
2019-01-14T00:07:31.525Z,99262.37
2019-01-14T00:09:59.513Z,99258.06
2019-01-14T00:12:27.235Z,99279.89
2019-01-14T00:14:54.970Z,99284.45
2019-01-14T00:17:22.835Z,99284.59
2019-01-14T00:19:51.055Z,99286.57
2019-01-14T00:22:18.766Z,99290.26
2019-01-14T00:24:46.988Z,99299.37
2019-01-14T00:27:15.103Z,99300.73
2019-01-14T00:29:43.078Z,99294.58
2019-01-14T00:32:11.137Z,99312.70
2019-01-14T00:34:39.171Z,99312.70
2019-01-14T00:37:06.926Z,99317.78
2019-01-14T00:39:34.751Z,99331.94
2019-01-14T00:42:02.728Z,99337.02
2019-01-14T00:44:30.461Z,99345.27
2019-01-14T00:46:58.208Z,99347.11
2019-01-14T00:49:26.208Z,99371.67
2019-01-14T00:51:53.963Z,99374.00
2019-01-14T00:54:21.811Z,99374.00
2019-01-14T00:56:49.536Z,99384.98
2019-01-14T00:59:17.555Z,99391.77
2019-01-14T01:01:45.842Z,99399.91
2019-01-14T01:04:13.651Z,99403.25
2019-01-14T01:06:41.391Z,99416.43
2019-01-14T01:09:09.652Z,99420.99
2019-01-14T01:11:37.986Z,99431.95
2019-01-14T01:14:05.980Z,99438.83
2019-01-14T01:16:33.751Z,99450.17
2019-01-14T01:19:01.563Z,99463.25
2019-01-14T01:21:29.541Z,99489.16
2019-01-14T01:23:57.504Z,99498.27
2019-01-14T01:26:25.225Z,99507.03
2019-01-14T01:28:53.551Z,99519.23
2019-01-14T01:31:22.707Z,99509.35
2019-01-14T01:33:51.019Z,99526.11
2019-01-14T01:36:18.833Z,99511.33
2019-01-14T01:38:46.594Z,99529.93
2019-01-14T01:41:14.931Z,99528.22
2019-01-14T01:43:42.679Z,99529.19
2019-01-14T01:46:10.654Z,99535.10
2019-01-14T01:48:38.384Z,99541.02
2019-01-14T01:51:06.387Z,99540.66
2019-01-14T01:53:34.600Z,99551.99
2019-01-14T01:56:02.326Z,99552.97
2019-01-14T01:58:30.116Z,99556.16
2019-01-14T02:00:57.986Z,99554.94
2019-01-14T02:03:25.857Z,99572.08
2019-01-14T02:05:53.871Z,99576.25
2019-01-14T02:08:21.848Z,99571.18
2019-01-14T02:10:49.827Z,99593.14
2019-01-14T02:13:17.791Z,99588.20
2019-01-14T02:15:45.543Z,99584.61
2019-01-14T02:18:13.325Z,99592.01
2019-01-14T02:20:41.147Z,99594.23
2019-01-14T02:23:09.361Z,99591.62
2019-01-14T02:25:37.632Z,99593.11
2019-01-14T02:28:05.635Z,99585.84
2019-01-14T02:30:33.349Z,99599.89
2019-01-14T02:33:01.480Z,99612.58
2019-01-14T02:35:29.228Z,99613.45
2019-01-14T02:37:56.976Z,99615.19
2019-01-14T02:40:24.799Z,99613.94
2019-01-14T02:42:52.851Z,99632.92
2019-01-14T02:51:40.228Z,99640.18
2019-01-14T02:54:08.252Z,99639.22
2019-01-14T02:56:35.973Z,99644.16
2019-01-14T02:59:03.682Z,99655.48
2019-01-14T03:01:31.684Z,99647.35
2019-01-14T03:03:59.760Z,99649.58
2019-01-14T03:06:27.811Z,99643.55
2019-01-14T03:08:55.874Z,99635.41
2019-01-14T03:11:23.853Z,99644.52
2019-01-14T03:13:51.563Z,99643.16
2019-01-14T03:16:19.519Z,99642.09
2019-01-14T03:18:47.515Z,99644.80
2019-01-14T03:21:15.833Z,99642.09
2019-01-14T03:23:43.809Z,99649.71
2019-01-14T03:26:11.551Z,99672.77
2019-01-14T03:28:39.636Z,99656.40
2019-01-14T03:31:07.604Z,99669.09
2019-01-14T03:33:35.820Z,99675.78
2019-01-14T03:36:03.568Z,99672.67
2019-01-14T03:38:31.647Z,99686.63
2019-01-14T03:40:59.365Z,99697.84
2019-01-14T03:43:27.195Z,99704.13
2019-01-14T03:45:55.257Z,99717.57
2019-01-14T03:48:23.283Z,99748.77
2019-01-14T03:50:51.110Z,99793.44
2019-01-14T03:53:19.158Z,99793.92
2019-01-14T03:55:47.201Z,99781.33
2019-01-14T03:58:15.678Z,99769.51
2019-01-14T04:00:43.687Z,99756.42
2019-01-14T04:03:11.416Z,99759.14
2019-01-14T04:05:39.454Z,99759.52
2019-01-14T04:08:07.194Z,99785.30
2019-01-14T04:10:35.284Z,99775.32
2019-01-14T04:13:03.066Z,99772.22
2019-01-14T04:15:31.402Z,99780.75
2019-01-14T04:17:59.139Z,99787.53
2019-01-14T04:20:27.332Z,99791.12
2019-01-14T04:22:55.526Z,99794.80
2019-01-14T04:25:23.744Z,99793.83
2019-01-14T04:27:51.479Z,99797.03
2019-01-14T04:30:20.437Z,99804.68
2019-01-14T04:32:48.179Z,99803.20
2019-01-14T04:35:15.957Z,99799.61
2019-01-14T04:37:43.975Z,99802.81
2019-01-14T04:40:11.745Z,99801.45
2019-01-14T04:42:39.469Z,99789.38
2019-01-14T04:45:08.082Z,99792.95
2019-01-14T04:47:36.067Z,99788.89
2019-01-14T04:50:05.059Z,99782.11
2019-01-14T04:52:32.799Z,99794.67
2019-01-14T04:55:00.791Z,99797.03
2019-01-14T04:57:28.780Z,99804.55
2019-01-14T04:59:56.612Z,99795.94
2019-01-14T05:02:24.603Z,99804.55
2019-01-14T05:04:52.337Z,99807.27
2019-01-14T05:07:20.313Z,99811.73
2019-01-14T05:09:48.359Z,99822.58
2019-01-14T05:12:16.087Z,99822.58
2019-01-14T05:14:44.238Z,99821.59
2019-01-14T05:17:11.976Z,99810.22
2019-01-14T05:19:39.950Z,99831.45
2019-01-14T05:22:08.028Z,99854.92
2019-01-14T05:24:36.229Z,99862.67
2019-01-14T05:27:04.563Z,99856.56
2019-01-14T05:29:32.928Z,99859.47
2019-01-14T05:32:01.020Z,99854.12
2019-01-14T05:34:29.016Z,99868.05
2019-01-14T05:36:56.813Z,99857.97
2019-01-14T05:39:25.135Z,99842.85
2019-01-14T05:41:52.945Z,99857.08
2019-01-14T05:44:21.047Z,99857.34
2019-01-14T05:46:49.207Z,99870.89
2019-01-14T05:49:17.693Z,99875.75
2019-01-14T05:51:45.929Z,99879.08
2019-01-14T05:54:13.719Z,99886.64
2019-01-14T05:56:41.437Z,99888.00
2019-01-14T05:59:09.422Z,99886.25
2019-01-14T06:01:37.410Z,99883.05
2019-01-14T06:04:05.178Z,99892.96
2019-01-14T06:06:32.888Z,99897.23
2019-01-14T06:09:01.105Z,99900.88
2019-01-14T06:11:28.880Z,99907.76
